Time;durP1;ratioP1;P1;durP2;ratioP2;P2;SDS_P1;SDS_P2;PMS_P1;PMS_P2;Temp;Humidity;BMP_temperature;BMP_pressure;BME280_temperature;BME280_humidity;BME280_pressure;Samples;Min_cycle;Max_cycle;Signal;HPM_P1;HPM_P2
2021/12/30 00:00:25;;;;;;;14.98;4.45;;;9.10;99.90;;;;;;5020592;28;20079;-81
2021/12/30 00:02:51;;;;;;;9.98;4.07;;;9.10;99.90;;;;;;5020387;28;20045;-81
2021/12/30 00:05:16;;;;;;;14.10;5.40;;;9.10;99.90;;;;;;5020146;28;20045;-81
2021/12/30 00:07:43;;;;;;;14.45;5.70;;;9.10;99.90;;;;;;5020677;28;20511;-81
2021/12/30 00:10:09;;;;;;;14.82;4.88;;;9.10;99.90;;;;;;5019766;28;20073;-81
2021/12/30 00:12:35;;;;;;;17.48;4.93;;;9.10;99.90;;;;;;5037552;28;20041;-80
2021/12/30 00:15:04;;;;;;;14.95;5.32;;;9.20;99.90;;;;;;5036381;28;20100;-81
2021/12/30 00:17:29;;;;;;;14.07;4.88;;;9.10;99.90;;;;;;5031432;28;20060;-81
2021/12/30 00:19:55;;;;;;;16.83;6.88;;;9.10;99.90;;;;;;5019556;28;20049;-81
2021/12/30 00:22:20;;;;;;;12.10;6.20;;;9.10;99.90;;;;;;5038079;28;20408;-81
2021/12/30 00:24:46;;;;;;;21.77;7.55;;;9.10;99.90;;;;;;5019546;28;20051;-80
2021/12/30 00:27:12;;;;;;;17.80;5.78;;;9.10;99.90;;;;;;5020965;28;20111;-81
2021/12/30 00:29:37;;;;;;;20.70;6.45;;;9.10;99.90;;;;;;5039831;28;20809;-80
2021/12/30 00:32:04;;;;;;;21.17;6.53;;;9.10;99.90;;;;;;5021543;28;20057;-80
2021/12/30 00:34:29;;;;;;;18.60;5.75;;;9.10;99.90;;;;;;5021954;28;20053;-80
2021/12/30 00:36:55;;;;;;;18.58;6.90;;;9.10;99.90;;;;;;5022468;28;20776;-81
2021/12/30 00:39:21;;;;;;;29.83;6.97;;;9.10;99.90;;;;;;5021600;28;20084;-80
2021/12/30 00:41:46;;;;;;;18.20;6.35;;;9.10;99.90;;;;;;5039622;28;20053;-81
2021/12/30 00:44:12;;;;;;;21.77;6.57;;;9.10;99.90;;;;;;5023132;28;20109;-81
2021/12/30 00:46:37;;;;;;;22.27;5.75;;;9.10;99.90;;;;;;5039793;28;20044;-80
2021/12/30 00:49:03;;;;;;;19.40;7.55;;;9.10;99.90;;;;;;5022429;28;20053;-80
2021/12/30 00:51:29;;;;;;;22.17;6.90;;;9.10;99.90;;;;;;5039050;28;20847;-80
2021/12/30 00:53:54;;;;;;;24.75;7.95;;;9.00;99.90;;;;;;5039141;28;20049;-81
2021/12/30 00:56:20;;;;;;;15.95;5.07;;;9.00;99.90;;;;;;5039641;28;20703;-81
2021/12/30 00:58:46;;;;;;;21.15;7.53;;;9.00;99.90;;;;;;5039924;28;20049;-81
2021/12/30 01:01:12;;;;;;;23.27;7.18;;;9.00;99.90;;;;;;5036818;28;20076;-81
2021/12/30 01:03:37;;;;;;;28.10;7.50;;;9.00;99.90;;;;;;5020359;28;20037;-81
2021/12/30 01:06:03;;;;;;;25.70;6.55;;;9.00;99.90;;;;;;5020209;28;21042;-80
2021/12/30 01:08:29;;;;;;;18.15;6.47;;;9.70;99.90;;;;;;5021683;28;20045;-81
2021/12/30 01:10:55;;;;;;;16.77;6.57;;;9.00;99.90;;;;;;5022170;28;20178;-81
2021/12/30 01:13:25;;;;;;;19.38;5.72;;;8.90;99.90;;;;;;5019464;28;20052;-81
2021/12/30 01:16:03;;;;;;;18.98;7.38;;;8.90;99.90;;;;;;5039467;28;20132;-81
2021/12/30 01:21:09;;;;;;;30.70;9.20;;;8.90;99.90;;;;;;5038748;28;20053;-80
2021/12/30 01:23:35;;;;;;;25.33;8.23;;;8.80;99.90;;;;;;5021225;28;20053;-81
2021/12/30 01:26:02;;;;;;;24.75;9.43;;;8.80;99.90;;;;;;5038641;28;20399;-80
2021/12/30 01:28:28;;;;;;;27.92;7.95;;;8.80;99.90;;;;;;5038723;28;20036;-80
2021/12/30 01:30:55;;;;;;;23.55;8.60;;;8.80;99.90;;;;;;5039513;28;20614;-80
2021/12/30 01:33:20;;;;;;;26.98;8.27;;;8.70;99.90;;;;;;5038553;28;20048;-81
2021/12/30 01:35:46;;;;;;;27.50;8.50;;;8.70;99.90;;;;;;5038643;28;20460;-80
2021/12/30 01:38:15;;;;;;;36.67;10.77;;;8.70;99.90;;;;;;5039584;28;20048;-80
2021/12/30 01:40:42;;;;;;;19.30;7.57;;;8.70;99.90;;;;;;5038684;28;20095;-80
2021/12/30 01:43:10;;;;;;;21.55;8.20;;;8.70;99.90;;;;;;5035737;28;20047;-80
2021/12/30 01:45:36;;;;;;;23.35;8.93;;;8.70;99.90;;;;;;5020386;28;20480;-80
2021/12/30 01:48:02;;;;;;;19.67;6.60;;;8.60;99.90;;;;;;5038726;28;20143;-80
2021/12/30 01:50:27;;;;;;;24.60;7.20;;;8.60;99.90;;;;;;5020089;28;20132;-79
2021/12/30 01:52:53;;;;;;;24.00;7.40;;;8.60;99.90;;;;;;5020401;28;20049;-80
2021/12/30 01:55:21;;;;;;;20.23;7.07;;;8.60;99.90;;;;;;5038506;28;20151;-80
2021/12/30 01:57:47;;;;;;;18.65;7.55;;;8.60;99.90;;;;;;5037096;28;20131;-80
2021/12/30 02:00:15;;;;;;;15.85;7.72;;;8.60;99.90;;;;;;5038515;28;20048;-80
2021/12/30 02:02:41;;;;;;;17.33;7.00;;;8.60;99.90;;;;;;5038012;28;20056;-79
2021/12/30 02:05:08;;;;;;;23.58;7.00;;;8.60;99.90;;;;;;5038392;28;20840;-79
2021/12/30 02:07:33;;;;;;;23.45;7.05;;;8.60;99.90;;;;;;5020957;28;20067;-79
2021/12/30 02:10:01;;;;;;;21.85;7.57;;;8.60;99.90;;;;;;5020298;28;20045;-80
2021/12/30 02:12:31;;;;;;;22.83;7.43;;;8.60;99.90;;;;;;5038649;28;20049;-79
2021/12/30 02:14:56;;;;;;;28.05;7.10;;;8.60;99.90;;;;;;5038298;28;20420;-79
2021/12/30 02:17:22;;;;;;;18.75;7.22;;;8.70;99.90;;;;;;5019596;28;20080;-79
2021/12/30 02:19:48;;;;;;;17.40;7.13;;;8.60;99.90;;;;;;5038473;28;20143;-79
2021/12/30 02:22:13;;;;;;;17.75;7.43;;;8.60;99.90;;;;;;5020257;28;20037;-79
2021/12/30 02:24:51;;;;;;;18.73;5.97;;;8.60;99.90;;;;;;5021497;28;20096;-79
2021/12/30 02:27:18;;;;;;;15.68;6.72;;;8.60;99.90;;;;;;5023922;28;20052;-79
2021/12/30 02:29:44;;;;;;;19.58;6.72;;;8.60;99.90;;;;;;5024080;28;20525;-79
2021/12/30 02:32:10;;;;;;;22.67;8.05;;;8.60;99.90;;;;;;5023480;28;20061;-80
2021/12/30 02:34:38;;;;;;;17.65;6.65;;;8.60;99.90;;;;;;5020040;28;20140;-79
2021/12/30 02:37:04;;;;;;;22.55;6.80;;;8.70;99.90;;;;;;5023759;28;20398;-79
2021/12/30 02:39:30;;;;;;;18.45;8.60;;;8.70;99.90;;;;;;5040615;28;20506;-80
2021/12/30 02:41:56;;;;;;;14.35;5.57;;;8.60;99.90;;;;;;5023502;28;20206;-79
2021/12/30 02:44:21;;;;;;;21.20;6.82;;;8.70;99.90;;;;;;5041199;28;20048;-79
2021/12/30 02:46:52;;;;;;;25.60;6.10;;;8.70;99.90;;;;;;5041678;28;20044;-79
2021/12/30 02:49:18;;;;;;;16.73;6.32;;;8.60;99.90;;;;;;5041117;28;20049;-79
2021/12/30 02:51:44;;;;;;;27.00;7.82;;;8.60;99.90;;;;;;5040957;28;20037;-79
2021/12/30 02:54:10;;;;;;;14.82;7.32;;;8.60;99.90;;;;;;5022695;28;20155;-78
2021/12/30 02:56:36;;;;;;;17.58;5.88;;;8.60;99.90;;;;;;5042201;28;20076;-78
2021/12/30 02:59:02;;;;;;;25.38;8.43;;;8.60;99.90;;;;;;5022191;28;20123;-79
2021/12/30 03:01:30;;;;;;;22.33;7.00;;;8.60;99.90;;;;;;5042133;28;20493;-79
2021/12/30 03:03:58;;;;;;;15.95;7.75;;;8.60;99.90;;;;;;5022528;28;20484;-79
2021/12/30 03:06:24;;;;;;;24.67;6.70;;;8.60;99.90;;;;;;5042596;28;20045;-79
2021/12/30 03:08:51;;;;;;;21.95;8.00;;;8.70;99.90;;;;;;5042336;28;20048;-79
2021/12/30 03:11:19;;;;;;;17.05;8.30;;;8.70;99.90;;;;;;5042350;28;20049;-79
2021/12/30 03:13:45;;;;;;;23.35;8.25;;;8.70;99.90;;;;;;5039796;28;20049;-79
2021/12/30 03:16:25;;;;;;;19.05;7.82;;;8.80;99.90;;;;;;5042044;28;20783;-79
2021/12/30 03:18:51;;;;;;;23.90;7.85;;;8.80;99.90;;;;;;5024261;28;20080;-79
2021/12/30 03:21:20;;;;;;;21.65;8.25;;;8.80;99.90;;;;;;5021930;28;20491;-79
2021/12/30 03:23:46;;;;;;;27.35;10.05;;;8.80;99.90;;;;;;5042017;28;20037;-79
2021/12/30 03:26:13;;;;;;;25.05;8.18;;;8.80;99.90;;;;;;5041852;28;20400;-79
2021/12/30 03:28:40;;;;;;;26.55;9.50;;;8.90;99.90;;;;;;5022739;28;20057;-79
2021/12/30 03:31:07;;;;;;;21.33;10.48;;;8.90;99.90;;;;;;5039658;28;20064;-79
2021/12/30 03:33:32;;;;;;;16.85;8.98;;;8.90;99.90;;;;;;5023675;28;20140;-79
2021/12/30 03:36:00;;;;;;;22.77;9.23;;;9.00;99.90;;;;;;5039890;28;20049;-79
2021/12/30 03:38:32;;;;;;;32.72;11.85;;;9.00;99.90;;;;;;5023326;28;20087;-79
2021/12/30 03:40:59;;;;;;;25.60;9.43;;;9.00;99.90;;;;;;5022174;28;20782;-79
2021/12/30 03:43:26;;;;;;;27.35;10.65;;;9.00;99.90;;;;;;5023313;28;20053;-79
2021/12/30 03:45:52;;;;;;;20.05;8.65;;;9.10;99.90;;;;;;5023056;28;20045;-79
2021/12/30 03:48:18;;;;;;;26.23;9.77;;;9.10;99.90;;;;;;5040344;28;20052;-78
2021/12/30 03:50:44;;;;;;;22.38;8.98;;;9.10;99.90;;;;;;5022730;28;20150;-79
2021/12/30 03:53:13;;;;;;;25.92;10.30;;;9.20;99.90;;;;;;5022050;28;20057;-79
2021/12/30 03:55:39;;;;;;;22.77;10.55;;;9.20;99.90;;;;;;5039415;28;20052;-78
2021/12/30 03:58:04;;;;;;;23.42;11.32;;;9.20;99.90;;;;;;5023047;28;20049;-79
2021/12/30 04:00:31;;;;;;;24.33;10.27;;;9.20;99.90;;;;;;5023335;28;20088;-79
2021/12/30 04:02:56;;;;;;;28.38;11.18;;;9.30;99.90;;;;;;5039467;28;20053;-79
2021/12/30 04:05:23;;;;;;;25.50;10.38;;;9.30;99.90;;;;;;5022647;28;20048;-79
2021/12/30 04:07:48;;;;;;;31.02;11.60;;;9.30;99.90;;;;;;5022384;28;20126;-79
2021/12/30 04:10:16;;;;;;;34.20;9.85;;;9.30;99.90;;;;;;5039946;28;20404;-79
2021/12/30 04:12:44;;;;;;;23.20;11.07;;;9.30;99.90;;;;;;5022932;28;20103;-79
2021/12/30 04:15:10;;;;;;;23.70;10.55;;;9.30;99.90;;;;;;5040414;28;20048;-79
2021/12/30 04:17:36;;;;;;;28.70;9.63;;;9.00;99.90;;;;;;5039530;28;20500;-78
2021/12/30 04:20:05;;;;;;;24.95;10.65;;;9.30;99.90;;;;;;5022250;28;20045;-79
2021/12/30 04:22:30;;;;;;;25.05;10.57;;;9.40;99.90;;;;;;5040642;28;20049;-78
2021/12/30 04:24:58;;;;;;;27.85;10.77;;;9.40;99.90;;;;;;5039625;28;20045;-78
2021/12/30 04:27:24;;;;;;;30.10;11.55;;;9.40;99.90;;;;;;5040417;28;20041;-79
2021/12/30 04:29:49;;;;;;;33.35;10.88;;;9.40;99.90;;;;;;5040118;28;20743;-78
2021/12/30 04:32:15;;;;;;;45.30;14.23;;;9.40;99.90;;;;;;5039675;28;20052;-79
2021/12/30 04:34:40;;;;;;;30.88;10.57;;;9.50;99.90;;;;;;5040325;28;20544;-78
2021/12/30 04:37:06;;;;;;;35.63;10.93;;;9.50;99.90;;;;;;5039652;28;20408;-78
2021/12/30 04:39:32;;;;;;;25.75;10.38;;;9.60;99.90;;;;;;5039658;28;20092;-78
2021/12/30 04:42:04;;;;;;;31.77;11.80;;;9.60;99.90;;;;;;5021632;28;20057;-78
2021/12/30 04:44:30;;;;;;;28.95;10.68;;;9.60;99.90;;;;;;5039576;28;20041;-79
2021/12/30 04:46:56;;;;;;;22.13;10.65;;;9.70;99.90;;;;;;5039890;28;20056;-78
2021/12/30 04:49:24;;;;;;;25.02;10.90;;;9.60;99.90;;;;;;5021571;28;20645;-79
2021/12/30 04:51:50;;;;;;;29.73;12.00;;;9.70;99.90;;;;;;5021178;28;20075;-79
2021/12/30 04:54:15;;;;;;;32.78;10.38;;;9.70;99.90;;;;;;5022538;28;20473;-78
2021/12/30 04:56:41;;;;;;;30.63;11.35;;;9.80;99.90;;;;;;5040419;28;20648;-79
2021/12/30 04:59:07;;;;;;;28.27;11.55;;;9.80;99.90;;;;;;5021429;28;20048;-79
2021/12/30 05:01:32;;;;;;;22.85;11.48;;;9.90;99.90;;;;;;5021874;28;20059;-78
2021/12/30 05:03:58;;;;;;;33.72;14.38;;;9.90;99.90;;;;;;5021912;28;20140;-78
2021/12/30 05:06:24;;;;;;;30.65;13.40;;;9.50;99.90;;;;;;5039031;28;20435;-79
2021/12/30 05:08:49;;;;;;;32.08;11.82;;;10.10;99.90;;;;;;5039831;28;20538;-78
2021/12/30 05:11:15;;;;;;;42.78;14.00;;;10.10;99.90;;;;;;5039965;28;20062;-78
2021/12/30 05:13:41;;;;;;;24.75;12.60;;;10.20;99.90;;;;;;5021196;28;20123;-78
2021/12/30 05:16:06;;;;;;;35.55;12.90;;;10.30;99.90;;;;;;5040437;28;20045;-78
2021/12/30 05:18:32;;;;;;;38.47;12.25;;;10.30;99.90;;;;;;5040124;28;20081;-78
2021/12/30 05:21:00;;;;;;;23.73;11.45;;;10.70;99.90;;;;;;5039088;28;20056;-78
2021/12/30 05:23:26;;;;;;;27.42;10.75;;;10.40;99.90;;;;;;5040116;28;20044;-78
2021/12/30 05:25:52;;;;;;;24.85;11.02;;;10.40;99.90;;;;;;5039937;28;20068;-78
2021/12/30 05:28:17;;;;;;;22.75;10.30;;;10.50;99.90;;;;;;5038334;28;20492;-78
2021/12/30 05:30:43;;;;;;;21.77;12.02;;;10.50;99.90;;;;;;5021057;28;20048;-78
2021/12/30 05:33:09;;;;;;;22.15;9.02;;;10.60;99.90;;;;;;5020758;28;20733;-78
2021/12/30 05:35:34;;;;;;;18.77;9.38;;;10.60;99.90;;;;;;5020379;28;20403;-78
2021/12/30 05:38:01;;;;;;;25.08;10.50;;;10.70;99.90;;;;;;5021356;28;20488;-78
2021/12/30 05:40:28;;;;;;;22.30;10.10;;;10.70;99.90;;;;;;5020372;28;20065;-78
2021/12/30 05:42:53;;;;;;;18.88;8.80;;;10.70;99.90;;;;;;5039234;28;20044;-78
2021/12/30 05:45:19;;;;;;;20.27;9.32;;;10.80;99.90;;;;;;5020607;28;20052;-78
2021/12/30 05:47:47;;;;;;;22.23;9.35;;;10.80;99.90;;;;;;5020427;28;20057;-78
2021/12/30 05:50:21;;;;;;;14.73;7.82;;;10.80;99.90;;;;;;5021130;28;20049;-79
2021/12/30 05:52:47;;;;;;;17.65;7.35;;;10.80;99.90;;;;;;5021620;28;20059;-79
2021/12/30 05:55:13;;;;;;;15.63;7.10;;;10.80;99.90;;;;;;5021100;28;20369;-78
2021/12/30 05:57:39;;;;;;;14.13;6.40;;;10.80;99.90;;;;;;5039349;28;20055;-78
2021/12/30 06:00:07;;;;;;;14.85;7.43;;;10.90;99.90;;;;;;5042645;28;20621;-78
2021/12/30 06:02:33;;;;;;;10.25;6.30;;;10.90;99.90;;;;;;5042804;28;20132;-78
2021/12/30 06:04:58;;;;;;;13.18;6.80;;;10.90;99.90;;;;;;5025548;28;20053;-78
2021/12/30 06:07:24;;;;;;;17.55;7.68;;;10.90;99.90;;;;;;5025043;28;20044;-79
2021/12/30 06:09:50;;;;;;;11.65;5.80;;;11.00;99.90;;;;;;5042826;28;20041;-79
2021/12/30 06:12:15;;;;;;;11.02;6.95;;;11.00;99.90;;;;;;5036342;28;20053;-78
2021/12/30 06:14:41;;;;;;;9.02;5.40;;;11.00;99.90;;;;;;5024670;28;20156;-79
2021/12/30 06:17:07;;;;;;;13.45;6.72;;;11.00;99.90;;;;;;5026226;28;20040;-80
2021/12/30 06:19:32;;;;;;;8.77;5.70;;;11.00;99.90;;;;;;5027251;28;20076;-81
2021/12/30 06:21:58;;;;;;;14.25;7.25;;;11.00;99.90;;;;;;5044381;28;20777;-81
2021/12/30 06:24:23;;;;;;;11.43;7.13;;;11.00;99.90;;;;;;5025220;28;20076;-81
2021/12/30 06:26:49;;;;;;;10.07;6.38;;;12.30;99.90;;;;;;5043169;28;20107;-82
2021/12/30 06:29:15;;;;;;;10.05;6.88;;;11.10;99.90;;;;;;5042086;28;20049;-83
2021/12/30 06:31:41;;;;;;;13.00;8.75;;;11.10;99.90;;;;;;5041305;28;20507;-82
2021/12/30 06:34:07;;;;;;;13.10;9.23;;;11.10;99.90;;;;;;5040212;28;20049;-82
2021/12/30 06:36:34;;;;;;;14.07;8.07;;;11.10;99.90;;;;;;5023767;28;20495;-82
2021/12/30 06:38:59;;;;;;;19.25;8.82;;;11.10;99.90;;;;;;5042442;28;20049;-82
2021/12/30 06:41:25;;;;;;;19.15;10.45;;;11.10;99.90;;;;;;5042158;28;20577;-82
2021/12/30 06:43:50;;;;;;;17.00;10.20;;;11.10;99.90;;;;;;5023835;28;20150;-83
2021/12/30 06:46:19;;;;;;;18.23;11.20;;;11.10;99.90;;;;;;5041771;28;20056;-82
2021/12/30 06:48:46;;;;;;;16.48;11.38;;;11.20;99.90;;;;;;5042375;28;20048;-83
2021/12/30 06:51:18;;;;;;;22.23;13.63;;;11.20;99.90;;;;;;5024006;28;20134;-80
2021/12/30 06:53:45;;;;;;;18.95;11.98;;;11.20;99.90;;;;;;5042363;28;20944;-80
2021/12/30 06:56:10;;;;;;;20.60;11.98;;;11.20;99.90;;;;;;5042328;28;20055;-79
2021/12/30 06:58:36;;;;;;;19.40;10.88;;;11.30;99.90;;;;;;5023468;28;20135;-80
2021/12/30 07:01:03;;;;;;;19.58;12.25;;;11.30;99.90;;;;;;5024015;28;20045;-79
2021/12/30 07:03:29;;;;;;;32.00;16.17;;;11.30;99.90;;;;;;5041879;28;20056;-77
2021/12/30 07:05:55;;;;;;;18.00;12.38;;;11.30;99.90;;;;;;5023340;28;20749;-77
2021/12/30 07:08:21;;;;;;;17.88;11.05;;;11.40;99.90;;;;;;5024261;28;20404;-79
2021/12/30 07:10:47;;;;;;;18.73;11.80;;;11.40;99.90;;;;;;5023710;28;20575;-78
2021/12/30 07:13:13;;;;;;;21.20;10.73;;;11.40;99.90;;;;;;5041837;28;20044;-77
2021/12/30 07:15:38;;;;;;;16.50;10.40;;;11.40;99.90;;;;;;5024076;28;20155;-75
2021/12/30 07:18:04;;;;;;;16.10;10.90;;;11.40;99.90;;;;;;5024851;28;20103;-75
2021/12/30 07:20:30;;;;;;;19.98;9.90;;;11.40;99.90;;;;;;5041193;28;20052;-75
2021/12/30 07:22:55;;;;;;;18.52;10.70;;;11.50;99.90;;;;;;5041560;28;20122;-77
2021/12/30 07:25:21;;;;;;;11.70;9.05;;;11.50;99.90;;;;;;5017403;28;20071;-78
2021/12/30 07:27:48;;;;;;;13.88;8.43;;;11.50;99.90;;;;;;5020859;28;20049;-77
2021/12/30 07:30:15;;;;;;;13.98;8.57;;;11.50;99.90;;;;;;5038962;28;20044;-76
2021/12/30 07:32:41;;;;;;;18.52;9.82;;;11.60;99.90;;;;;;5039218;28;20159;-78
2021/12/30 07:35:07;;;;;;;12.80;7.60;;;11.60;99.90;;;;;;5020006;28;20090;-77
2021/12/30 07:37:33;;;;;;;13.30;7.20;;;11.60;99.90;;;;;;5020620;28;20045;-77
2021/12/30 07:39:58;;;;;;;12.38;6.15;;;11.60;99.90;;;;;;5037151;28;20141;-76
2021/12/30 07:42:24;;;;;;;11.27;6.80;;;11.60;99.90;;;;;;5038775;28;20048;-76
2021/12/30 07:44:49;;;;;;;12.27;6.22;;;11.70;99.90;;;;;;5037639;28;20556;-76
2021/12/30 07:47:15;;;;;;;8.75;5.93;;;11.70;99.90;;;;;;5037161;28;20047;-78
2021/12/30 07:49:41;;;;;;;7.55;5.55;;;11.80;99.90;;;;;;5038343;28;20045;-77
2021/12/30 07:52:07;;;;;;;8.65;5.88;;;11.70;99.90;;;;;;5019717;28;20052;-77
2021/12/30 07:54:34;;;;;;;7.80;4.70;;;11.80;99.90;;;;;;5036696;28;20041;-79
2021/12/30 07:57:00;;;;;;;9.15;5.65;;;11.80;99.90;;;;;;5018998;28;20136;-78
2021/12/30 07:59:26;;;;;;;6.82;4.32;;;11.80;99.90;;;;;;5019656;28;20900;-78
2021/12/30 08:01:51;;;;;;;7.97;5.03;;;11.80;99.90;;;;;;5019027;28;20049;-79
2021/12/30 08:04:17;;;;;;;5.82;4.25;;;11.80;99.90;;;;;;5038059;28;20052;-78
2021/12/30 08:06:43;;;;;;;4.00;3.53;;;11.80;99.90;;;;;;5018716;28;20881;-77
2021/12/30 08:09:08;;;;;;;4.88;4.03;;;11.80;99.90;;;;;;5036959;28;20129;-76
2021/12/30 08:11:35;;;;;;;3.15;2.85;;;11.90;99.90;;;;;;5015560;28;20052;-76
2021/12/30 08:14:00;;;;;;;4.97;3.17;;;11.90;99.90;;;;;;5035826;28;20055;-77
2021/12/30 08:16:27;;;;;;;2.33;2.13;;;11.90;99.90;;;;;;5034517;28;20028;-79
2021/12/30 08:18:53;;;;;;;2.90;2.25;;;11.90;99.90;;;;;;5035050;28;20059;-81
2021/12/30 08:21:22;;;;;;;3.13;1.98;;;11.90;99.90;;;;;;5032645;28;20076;-79
2021/12/30 08:23:51;;;;;;;3.75;2.13;;;12.00;99.90;;;;;;5033974;28;20702;-78
2021/12/30 08:26:17;;;;;;;2.00;1.63;;;12.00;99.90;;;;;;5016734;28;20779;-78
2021/12/30 08:28:44;;;;;;;2.38;1.75;;;12.00;99.90;;;;;;5035085;28;20847;-78
2021/12/30 08:31:10;;;;;;;1.42;1.30;;;12.00;99.90;;;;;;5014059;28;20060;-78
2021/12/30 08:33:36;;;;;;;2.13;1.17;;;12.00;99.90;;;;;;5034619;28;20037;-79
2021/12/30 08:36:02;;;;;;;1.15;0.98;;;12.00;99.90;;;;;;5014023;28;20079;-79
2021/12/30 08:38:27;;;;;;;2.78;1.40;;;12.10;99.90;;;;;;5034612;28;20523;-80
2021/12/30 08:40:53;;;;;;;1.67;1.25;;;12.10;99.90;;;;;;5016688;28;20084;-83
2021/12/30 08:43:19;;;;;;;2.85;1.20;;;11.60;99.90;;;;;;5016016;28;20127;-84
2021/12/30 08:45:46;;;;;;;1.38;1.02;;;12.10;99.90;;;;;;5034280;28;20829;-83
2021/12/30 08:48:12;;;;;;;1.00;1.00;;;12.10;99.90;;;;;;5016857;28;20581;-81
2021/12/30 08:50:38;;;;;;;1.02;1.02;;;12.10;99.90;;;;;;5031709;28;20052;-80
2021/12/30 08:53:04;;;;;;;4.32;1.50;;;12.20;99.90;;;;;;5033620;28;20140;-81
2021/12/30 08:55:30;;;;;;;3.72;1.83;;;12.10;99.90;;;;;;5015507;28;20056;-87
2021/12/30 08:57:56;;;;;;;1.85;1.60;;;12.20;99.90;;;;;;5033942;28;20788;-82
2021/12/30 09:00:27;;;;;;;1.80;1.70;;;12.20;99.90;;;;;;5015312;28;20150;-81
2021/12/30 09:02:54;;;;;;;2.70;2.00;;;12.20;99.90;;;;;;5032186;28;20045;-78
2021/12/30 09:05:21;;;;;;;3.88;2.35;;;12.30;99.90;;;;;;5012835;28;20476;-80
2021/12/30 09:07:47;;;;;;;4.38;2.25;;;12.30;99.90;;;;;;5015083;28;20048;-79
2021/12/30 09:10:15;;;;;;;5.32;3.55;;;12.30;99.90;;;;;;5033812;28;20053;-79
2021/12/30 09:12:45;;;;;;;8.18;4.53;;;12.40;99.90;;;;;;5034632;28;20033;-69
2021/12/30 09:15:15;;;;;;;6.88;3.63;;;12.40;99.90;;;;;;5016183;28;20071;-67
2021/12/30 09:17:43;;;;;;;6.90;4.65;;;12.40;99.90;;;;;;5034202;28;20029;-67
2021/12/30 09:20:09;;;;;;;7.85;4.60;;;12.40;99.90;;;;;;5034045;28;20055;-67
2021/12/30 09:22:36;;;;;;;4.85;3.55;;;12.40;99.90;;;;;;5035023;28;20079;-67
2021/12/30 09:25:07;;;;;;;8.88;4.55;;;12.50;99.90;;;;;;5016725;28;20057;-69
2021/12/30 09:27:37;;;;;;;8.43;4.38;;;12.50;99.90;;;;;;5035797;28;20052;-68
2021/12/30 09:30:09;;;;;;;7.80;4.32;;;12.50;99.90;;;;;;5036653;28;20048;-69
2021/12/30 09:32:34;;;;;;;7.32;4.00;;;12.50;99.90;;;;;;5017857;28;20094;-71
2021/12/30 09:35:00;;;;;;;8.20;4.03;;;12.50;99.90;;;;;;5036337;28;20048;-78
2021/12/30 09:37:26;;;;;;;4.82;3.25;;;12.50;99.90;;;;;;5038897;28;20052;-78
2021/12/30 09:39:51;;;;;;;5.00;2.67;;;12.50;99.90;;;;;;5020481;28;20049;-83
2021/12/30 09:42:18;;;;;;;4.00;2.75;;;12.50;99.90;;;;;;5019634;28;20049;-84
2021/12/30 09:44:44;;;;;;;4.13;2.78;;;12.50;99.90;;;;;;5038146;28;20060;-76
2021/12/30 09:47:10;;;;;;;4.80;3.35;;;12.50;99.90;;;;;;5038451;28;20081;-77
2021/12/30 09:49:35;;;;;;;5.78;3.65;;;12.60;99.90;;;;;;5020839;28;20064;-76
2021/12/30 09:52:01;;;;;;;6.90;3.95;;;12.60;99.90;;;;;;5038352;28;20044;-80
2021/12/30 09:54:27;;;;;;;8.43;3.70;;;12.60;99.90;;;;;;5019965;28;20107;-81
2021/12/30 09:56:53;;;;;;;7.03;4.28;;;12.60;99.90;;;;;;5038559;28;20052;-81
2021/12/30 09:59:20;;;;;;;11.15;5.20;;;12.60;99.90;;;;;;5019748;28;20060;-81
2021/12/30 10:01:46;;;;;;;9.55;6.32;;;12.60;99.90;;;;;;5038076;28;20145;-81
2021/12/30 10:04:12;;;;;;;12.90;5.50;;;12.60;99.90;;;;;;5038399;28;20157;-82
2021/12/30 10:06:47;;;;;;;9.82;6.18;;;12.60;99.90;;;;;;5020264;28;20643;-82
2021/12/30 10:09:15;;;;;;;6.97;5.40;;;12.60;99.90;;;;;;4672143;28;10000238;-87
2021/12/30 10:11:51;;;;;;;7.90;5.03;;;12.60;99.90;;;;;;5016766;28;20049;-88
2021/12/30 10:14:32;;;;;;;10.13;5.38;;;12.60;99.90;;;;;;5033652;28;20033;-86
2021/12/30 10:17:19;;;;;;;13.00;6.00;;;12.60;99.90;;;;;;5015826;28;20059;-85
2021/12/30 10:19:46;;;;;;;16.35;5.82;;;12.60;99.90;;;;;;5035135;28;20078;-83
2021/12/30 10:22:14;;;;;;;13.85;5.35;;;12.60;99.90;;;;;;5035006;28;20052;-86
2021/12/30 10:24:40;;;;;;;8.40;4.72;;;12.50;99.90;;;;;;5018341;28;20084;-86
2021/12/30 10:27:07;;;;;;;8.88;4.65;;;12.60;99.90;;;;;;5017082;28;20048;-84
2021/12/30 10:29:43;;;;;;;7.40;4.38;;;12.60;99.90;;;;;;5016266;28;20056;-83
2021/12/30 10:32:17;;;;;;;6.00;4.25;;;12.50;99.90;;;;;;5035008;28;20064;-85
2021/12/30 10:35:21;;;;;;;7.15;4.90;;;12.50;99.90;;;;;;5017131;28;20037;-82
2021/12/30 10:38:00;;;;;;;14.95;7.05;;;12.50;99.90;;;;;;4956697;28;20054;-82
2021/12/30 10:40:31;;;;;;;12.18;5.07;;;12.50;99.90;;;;;;4972556;28;20054;-81
2021/12/30 10:43:26;;;;;;;12.02;5.10;;;12.50;99.90;;;;;;4991450;28;20059;-75
2021/12/30 10:46:05;;;;;;;8.52;4.75;;;12.50;99.90;;;;;;5030588;28;20045;-80
2021/12/30 10:48:31;;;;;;;14.32;5.32;;;12.50;99.90;;;;;;5020164;28;20244;-77
2021/12/30 10:51:11;;;;;;;9.75;5.45;;;12.50;99.90;;;;;;5019217;28;20049;-77
2021/12/30 10:53:37;;;;;;;11.55;6.05;;;12.50;99.90;;;;;;5019316;28;20164;-77
2021/12/30 10:56:24;;;;;;;11.30;5.40;;;12.50;99.90;;;;;;5036341;28;20035;-76
2021/12/30 10:58:50;;;;;;;9.55;4.43;;;12.50;99.90;;;;;;5033577;28;20056;-76
2021/12/30 11:01:21;;;;;;;12.82;5.55;;;12.50;99.90;;;;;;5019276;28;20040;-77
2021/12/30 11:04:00;;;;;;;13.73;5.18;;;12.50;99.90;;;;;;5037272;28;20037;-78
2021/12/30 11:06:26;;;;;;;10.25;5.47;;;12.50;99.90;;;;;;5014372;28;20060;-80
2021/12/30 11:09:13;;;;;;;17.70;5.95;;;12.50;99.90;;;;;;5020197;28;20048;-81
2021/12/30 11:11:46;;;;;;;7.13;4.68;;;12.50;99.90;;;;;;5019153;28;20049;-82
2021/12/30 11:14:13;;;;;;;;;;;12.50;99.90;;;;;;5020372;28;20191;-81
2021/12/30 11:16:59;;;;;;;16.55;7.20;;;12.40;99.90;;;;;;5019988;28;20053;-80
2021/12/30 11:19:28;;;;;;;13.43;5.25;;;12.50;99.90;;;;;;5011505;28;20123;-80
2021/12/30 11:21:58;;;;;;;12.38;5.88;;;12.40;99.90;;;;;;5013440;28;20896;-80
2021/12/30 11:24:26;;;;;;;20.23;7.22;;;12.50;99.90;;;;;;5013486;28;20888;-80
2021/12/30 11:26:52;;;;;;;20.60;6.65;;;12.50;99.90;;;;;;5019005;28;20357;-79
2021/12/30 11:29:18;;;;;;;17.50;5.57;;;12.50;99.90;;;;;;5018823;28;20045;-78
2021/12/30 11:31:44;;;;;;;20.73;7.30;;;12.50;99.90;;;;;;5013470;28;20059;-78
2021/12/30 11:34:09;;;;;;;16.65;7.57;;;12.50;99.90;;;;;;5037174;28;20048;-78
2021/12/30 11:36:35;;;;;;;26.70;9.15;;;12.50;99.90;;;;;;5019282;28;20045;-77
2021/12/30 11:39:10;;;;;;;19.77;7.28;;;12.50;99.90;;;;;;5017754;28;20765;-77
2021/12/30 11:41:36;;;;;;;21.70;8.02;;;12.50;99.90;;;;;;5019351;28;20061;-77
2021/12/30 11:44:01;;;;;;;14.52;6.25;;;12.50;99.90;;;;;;5037794;28;20083;-75
2021/12/30 11:46:42;;;;;;;22.10;7.38;;;12.50;99.90;;;;;;5036825;28;20097;-75
2021/12/30 11:49:10;;;;;;;18.98;7.15;;;12.50;99.90;;;;;;5036223;28;20416;-76
2021/12/30 11:51:48;;;;;;;21.40;7.20;;;12.50;99.90;;;;;;5019479;28;20049;-75
2021/12/30 11:54:40;;;;;;;16.10;7.45;;;12.50;99.90;;;;;;5036652;28;20579;-76
2021/12/30 11:57:34;;;;;;;10.60;6.35;;;12.50;99.90;;;;;;5018726;28;20699;-74
2021/12/30 12:00:34;;;;;;;21.92;7.22;;;12.50;99.90;;;;;;5018935;28;20103;-73
2021/12/30 12:03:02;;;;;;;14.27;6.35;;;12.50;99.90;;;;;;5036364;28;20060;-73
2021/12/30 12:05:44;;;;;;;20.13;7.53;;;12.50;99.90;;;;;;5018144;28;20243;-77
2021/12/30 12:08:12;;;;;;;21.85;7.00;;;12.60;99.90;;;;;;5017052;28;20841;-77
2021/12/30 12:10:40;;;;;;;21.00;7.60;;;12.60;99.90;;;;;;5018297;28;20492;-84
2021/12/30 12:13:31;;;;;;;23.08;7.40;;;12.60;99.90;;;;;;5037312;28;20520;-82
2021/12/30 12:15:57;;;;;;;19.42;7.22;;;12.60;99.90;;;;;;5036123;28;20124;-84
2021/12/30 12:18:26;;;;;;;15.95;6.10;;;12.70;99.90;;;;;;5018217;28;20115;-82
2021/12/30 12:20:57;;;;;;;24.35;6.68;;;12.70;99.90;;;;;;5036399;28;20048;-85
2021/12/30 12:23:37;;;;;;;13.13;6.45;;;12.70;99.90;;;;;;5035692;28;20516;-83
2021/12/30 12:26:20;;;;;;;26.38;6.88;;;12.70;99.90;;;;;;5036583;28;20083;-85
2021/12/30 12:28:47;;;;;;;18.27;6.57;;;12.70;99.90;;;;;;5018600;28;20107;-86
2021/12/30 12:31:13;;;;;;;29.38;9.35;;;12.70;99.90;;;;;;5018912;28;20064;-86
2021/12/30 12:33:41;;;;;;;19.52;7.45;;;12.70;99.90;;;;;;5036474;28;20598;-86
2021/12/30 12:36:33;;;;;;;17.67;5.68;;;12.80;99.90;;;;;;5019401;28;20053;-86
2021/12/30 12:38:59;;;;;;;17.77;6.00;;;12.70;99.90;;;;;;5030505;28;20064;-86
2021/12/30 12:41:31;;;;;;;19.58;6.15;;;12.70;99.90;;;;;;5018590;28;20412;-85
2021/12/30 12:43:57;;;;;;;18.50;6.47;;;12.70;99.90;;;;;;5033936;28;20045;-74
2021/12/30 12:46:49;;;;;;;17.67;8.00;;;12.40;99.90;;;;;;5036503;28;20072;-84